• Join FlightAware (Why Join?)
  • Login
  • US Flag 
10:07PM EDT


 

Airport Tracker/Info


-or-


 

Live Flight TrackerFlight Track Log ✈ SWA385 ✈ 12-Jul-2013 ✈ KMDW - KSMF

Flight Track Log - Related Links

Times and Time Zones

All times are in EDT time to prevent confusion due to time zone crossing. See the SWA385 flight status page for this flight to view local times or setup timezone preferences in your user account.

Time Position Orientation Groundspeed Altitude Reporting Facility
EDT Latitude Longitude Course Direction KTS MPH feet Rate Location/Type
07:08PM 41.8000 -87.8000 292° West 231 266 3,200  Level Chicago TRACON
07:09PM 41.7833 -87.9000 257° West 266 306 4,000 1,260 Climbing Chicago TRACON
07:10PM 41.8000 -87.9833 285° West 271 312 5,700 2,460 Climbing Chicago TRACON
07:11PM 41.8322 -88.1061 289° West 287 330 9,700 2,880 Climbing Chicago Center
07:12PM 41.8664 -88.2056 295° West 297 342 12,700 3,060 Climbing Chicago Center
07:13PM 41.8978 -88.3364 288° West 310 357 16,100 2,160 Climbing Chicago Center
07:14PM 41.9219 -88.4597 285° West 334 384 17,200 1,500 Climbing Chicago Center
07:15PM 41.9481 -88.6017 284° West 384 442 19,300 2,040 Climbing Chicago Center
07:16PM 41.9739 -88.7442 284° West 395 455 21,500 2,100 Climbing Chicago Center
07:17PM 41.9997 -88.8936 283° West 410 472 23,700 1,920 Climbing Chicago Center
07:18PM 42.0292 -89.0761 282° West 419 482 25,500 1,500 Climbing Chicago Center
07:20PM 42.0297 -89.2428 270° West 449 517 26,800 1,380 Climbing Chicago Center
07:21PM 42.0264 -89.4144 269° West 462 532 28,400 1,500 Climbing Chicago Center
07:22PM 42.0317 -89.5869 272° West 462 532 30,000 1,740 Climbing Chicago Center
07:23PM 42.0394 -89.7928 273° West 464 534 32,100 1,680 Climbing Chicago Center
07:24PM 42.0467 -89.9400 274° West 460 529 33,500 1,440 Climbing Chicago Center
07:25PM 42.0603 -90.1419 275° West 457 526 35,100 1,200 Climbing Chicago Center
07:26PM 42.0753 -90.3100 277° West 456 525 36,000 600 Climbing Chicago Center
07:27PM 42.0897 -90.4761 277° West 453 521 36,400 720 Climbing Chicago Center
07:28PM 42.1028 -90.6419 276° West 450 518 37,500 720 Climbing Chicago Center
07:29PM 42.1156 -90.8086 276° West 449 517 38,000 240 Climbing Chicago Center
07:30PM 42.1289 -90.9739 276° West 446 513 38,000  Level Chicago Center
07:31PM 42.1436 -91.1750 276° West 451 519 38,000  Level Chicago Center
07:32PM 42.1561 -91.3400 276° West 446 513 38,000  Level Chicago Center
07:33PM 42.1683 -91.5064 276° West 446 513 38,000  Level Chicago Center
07:34PM 42.1811 -91.6714 276° West 444 511 38,000  Level Chicago Center
07:35PM 42.1925 -91.8378 275° West 445 512 38,000  Level Chicago Center
07:36PM 42.2064 -92.0358 275° West 445 512 38,000  Level Chicago Center
07:37PM 42.2169 -92.2000 275° West 443 510 38,000  Level Chicago Center
07:38PM 42.2289 -92.3650 276° West 443 510 38,000  Level Chicago Center
07:39PM 42.2397 -92.5286 275° West 441 507 38,000  Level Chicago Center
07:40PM 42.2456 -92.6283 275° West 441 507 38,000  Level Minneapolis Center
07:41PM 42.2561 -92.7919 275° West 442 509 38,000  Level Minneapolis Center
07:42PM 42.2658 -92.9531 275° West 439 505 38,000  Level Minneapolis Center
07:43PM 42.2783 -93.1494 275° West 442 509 38,000  Level Minneapolis Center
07:44PM 42.2867 -93.3128 274° West 441 507 38,000  Level Minneapolis Center
07:45PM 42.2975 -93.4761 275° West 442 509 38,000  Level Minneapolis Center
07:46PM 42.3061 -93.6397 274° West 443 510 38,000  Level Minneapolis Center
07:47PM 42.3153 -93.8044 274° West 444 511 38,000  Level Minneapolis Center
07:48PM 42.3247 -94.0014 274° West 439 505 38,000  Level Minneapolis Center
07:49PM 42.3339 -94.1653 274° West 441 507 38,000  Level Minneapolis Center
07:50PM 42.3436 -94.3419 274° West 438 504 38,000  Level Minneapolis Center
07:51PM 42.3517 -94.5072 274° West 441 507 38,000  Level Minneapolis Center
07:52PM 42.3575 -94.6700 273° West 437 503 38,000  Level Minneapolis Center
07:53PM 42.3653 -94.8328 274° West 435 501 38,000  Level Minneapolis Center
07:54PM 42.3728 -94.9944 274° West 433 498 38,000  Level Minneapolis Center
07:55PM 42.3811 -95.1911 273° West 437 503 38,000  Level Minneapolis Center
07:56PM 42.3869 -95.3542 273° West 436 502 38,000  Level Minneapolis Center
07:57PM 42.3942 -95.5217 273° West 443 510 38,000  Level Minneapolis Center
07:58PM 42.4006 -95.6878 273° West 446 513 38,000  Level Minneapolis Center
07:59PM 42.4061 -95.8497 273° West 436 502 38,000  Level Minneapolis Center
08:00PM 42.4114 -96.0144 273° West 439 505 38,000  Level Minneapolis Center
08:01PM 42.4100 -96.2125 270° West 440 506 38,000  Level Minneapolis Center
08:03PM 42.4028 -96.3756 267° West 438 504 38,000  Level Minneapolis Center
08:04PM 42.3972 -96.5378 267° West 437 503 38,000  Level Minneapolis Center
08:05PM 42.3894 -96.6989 266° West 432 497 38,000  Level Minneapolis Center
08:06PM 42.3822 -96.8600 267° West 431 496 38,000  Level Minneapolis Center
08:07PM 42.3753 -97.0225 267° West 433 498 38,000  Level Minneapolis Center
08:08PM 42.3661 -97.2161 266° West 433 498 38,000  Level Minneapolis Center
08:09PM 42.3578 -97.3789 266° West 434 499 38,000  Level Minneapolis Center
08:10PM 42.3500 -97.5400 266° West 433 498 38,000  Level Minneapolis Center
08:11PM 42.3419 -97.7017 266° West 432 497 38,000  Level Minneapolis Center
08:12PM 42.3328 -97.8736 266° West 431 496 38,000  Level Minneapolis Center
08:13PM 42.3239 -98.0333 266° West 428 493 38,000  Level Minneapolis Center
08:14PM 42.3150 -98.1931 266° West 428 493 38,000  Level Minneapolis Center
08:15PM 42.3067 -98.3511 266° West 424 488 38,000  Level Minneapolis Center
08:16PM 42.2947 -98.5414 265° West 425 489 38,000  Level Minneapolis Center
08:17PM 42.2850 -98.7000 265° West 426 490 38,000  Level Denver Center
08:18PM 42.2750 -98.8603 265° West 428 493 38,000  Level Denver Center
08:19PM 42.2656 -99.0194 265° West 426 490 38,000  Level Denver Center
08:20PM 42.2550 -99.1772 265° West 425 489 38,000  Level Denver Center
08:21PM 42.2431 -99.3694 265° West 428 493 38,000  Level Minneapolis Center
08:22PM 42.2297 -99.5594 265° West 426 490 38,000  Level Denver Center
08:23PM 42.2214 -99.6867 265° West 427 491 38,000  Level Minneapolis Center
08:24PM 42.2117 -99.8464 265° West 428 493 38,000  Level Minneapolis Center
08:25PM 42.1986 -100.0058 264° West 428 493 38,000  Level Minneapolis Center
08:26PM 42.1869 -100.1653 264° West 429 494 38,000  Level Minneapolis Center
08:27PM 42.1733 -100.3511 264° West 420 483 38,000  Level Minneapolis Center
08:28PM 42.1617 -100.5083 264° West 420 483 38,000  Level Minneapolis Center
08:30PM 42.1633 -100.6822 271° West 423 487 38,000  Level Denver Center
08:31PM 42.1644 -100.8572 271° West 421 484 38,000  Level Denver Center
08:32PM 42.1944 -100.9783 289° West 428 493 38,000  Level Denver Center
08:33PM 42.2414 -101.1717 288° West 426 490 38,000  Level Denver Center
08:34PM 42.2769 -101.3142 289° West 422 486 38,000  Level Denver Center
08:35PM 42.3194 -101.4822 289° West 424 488 38,000  Level Denver Center
08:36PM 42.3569 -101.6250 290° West 422 486 38,000  Level Denver Center
08:37PM 42.4008 -101.7917 290° West 422 486 38,000  Level Denver Center
08:38PM 42.4400 -101.9422 289° West 422 486 38,000  Level Denver Center
08:39PM 42.4772 -102.0844 290° West 420 483 38,000  Level Denver Center
08:40PM 42.5114 -102.2519 286° West 414 476 38,000  Level Denver Center
08:41PM 42.5103 -102.4006 269° West 413 475 38,000  Level Denver Center
08:42PM 42.5108 -102.5492 270° West 413 475 38,000  Level Denver Center
08:43PM 42.5103 -102.7244 270° West 416 479 38,000  Level Denver Center
08:44PM 42.5114 -102.8742 271° West 418 481 38,000  Level Denver Center
08:45PM 42.5131 -103.0475 271° West 414 476 38,000  Level Denver Center
08:46PM 42.5139 -103.1967 270° West 413 475 38,000  Level Denver Center
08:47PM 42.5181 -103.3692 272° West 411 473 38,000  Level Denver Center
08:48PM 42.5222 -103.4922 273° West 411 473 38,000  Level Denver Center
08:49PM 42.5297 -103.6897 273° West 412 474 38,000  Level Denver Center
08:50PM 42.5364 -103.8372 274° West 411 473 38,000  Level Denver Center
08:51PM 42.5419 -103.9867 273° West 414 476 38,000  Level Denver Center
08:52PM 42.5494 -104.1608 273° West 416 479 38,000  Level Denver Center
08:53PM 42.5631 -104.3089 277° West 415 478 38,000  Level Denver Center
08:54PM 42.5628 -104.4733 270° West 391 450 38,000  Level Denver Center
08:55PM 42.5428 -104.6506 261° West 486 559 38,000  Level Denver Center
08:56PM 42.5372 -104.7919 267° West 429 494 38,000  Level Denver Center
08:58PM 42.5236 -104.9578 264° West 406 467 38,000  Level Denver Center
08:59PM 42.5083 -105.1267 263° West 403 464 38,000  Level Denver Center
09:00PM 42.4975 -105.2475 263° West 405 466 38,000  Level Denver Center
09:01PM 42.4761 -105.4669 263° West 409 471 38,000  Level Denver Center
09:02PM 42.4592 -105.6394 262° West 414 476 38,000  Level Denver Center
09:03PM 42.4450 -105.7853 263° West 410 472 38,000  Level Denver Center
09:04PM 42.4292 -105.9533 263° West 405 466 38,000  Level Denver Center
09:05PM 42.4150 -106.0978 262° West 405 466 38,000  Level Denver Center
09:06PM 42.3969 -106.2650 262° West 404 465 38,000  Level Denver Center
09:07PM 42.3847 -106.3847 262° West 403 464 38,000  Level Denver Center
09:08PM 42.3658 -106.5761 262° West 403 464 38,000  Level Denver Center
09:09PM 42.3508 -106.7189 262° West 402 463 38,000  Level Denver Center
09:10PM 42.3353 -106.8597 262° West 399 459 38,000  Level Denver Center
09:11PM 42.3172 -107.0264 262° West 401 461 38,000  Level Denver Center
09:12PM 42.3022 -107.1689 262° West 401 461 38,000  Level Denver Center
09:13PM 42.2839 -107.3375 262° West 405 466 38,000  Level Denver Center
09:14PM 42.2617 -107.5311 261° West 410 472 38,000  Level Denver Center
09:15PM 42.2456 -107.6764 262° West 409 471 38,000  Level Denver Center
09:16PM 42.2303 -107.8189 262° West 404 465 38,000  Level Denver Center
09:18PM 42.2097 -107.9847 261° West 402 463 38,000  Level Denver Center
09:19PM 42.1956 -108.1017 261° West 401 461 38,000  Level Denver Center
09:20PM 42.1700 -108.3194 261° West 405 466 38,000  Level Salt Lake Center
09:21PM 42.1542 -108.4625 262° West 404 465 38,000  Level Salt Lake Center
09:22PM 42.1347 -108.6275 261° West 400 460 38,000  Level Salt Lake Center
09:23PM 42.1164 -108.7686 260° West 401 461 38,000  Level Salt Lake Center
09:24PM 42.0956 -108.9300 260° West 396 456 38,000  Level Salt Lake Center
09:25PM 42.0778 -109.0700 260° West 397 457 38,000  Level Salt Lake Center
09:26PM 42.0603 -109.2075 260° West 393 452 38,000  Level Salt Lake Center
09:27PM 42.0392 -109.3678 260° West 392 451 38,000  Level Salt Lake Center
09:28PM 42.0208 -109.5053 260° West 393 452 38,000  Level Salt Lake Center
09:29PM 41.9997 -109.6656 260° West 391 450 38,000  Level Salt Lake Center
09:30PM 41.9814 -109.8019 260° West 390 449 38,000  Level Salt Lake Center
09:31PM 41.9594 -109.9600 259° West 388 447 38,000  Level Salt Lake Center
09:32PM 41.9406 -110.0972 260° West 390 449 38,000  Level Salt Lake Center
09:33PM 41.9194 -110.2569 260° West 390 449 38,000  Level Salt Lake Center
09:34PM 41.9000 -110.3933 259° West 389 448 38,000  Level Salt Lake Center
09:35PM 41.8811 -110.5286 259° West 387 445 38,000  Level Salt Lake Center
09:36PM 41.8586 -110.6875 259° West 390 449 38,000  Level Salt Lake Center
09:37PM 41.8394 -110.8253 259° West 392 451 38,000  Level Salt Lake Center
09:38PM 41.8181 -110.9742 259° West 389 448 38,000  Level Salt Lake Center
09:39PM 41.7969 -111.1164 259° West 391 450 38,000  Level Salt Lake Center
09:40PM 41.7761 -111.2567 259° West 388 447 38,000  Level Salt Lake Center
09:41PM 41.7547 -111.3978 259° West 388 447 38,000  Level Salt Lake Center
09:42PM 41.7303 -111.5653 259° West 386 444 38,000  Level Salt Lake Center
09:43PM 41.7083 -111.7064 258° West 389 448 38,000  Level Salt Lake Center
09:44PM 41.6869 -111.8472 259° West 390 449 38,000  Level Salt Lake Center
09:45PM 41.6647 -111.9892 258° West 392 451 38,000  Level Salt Lake Center
09:46PM 41.6431 -112.1283 258° West 387 445 38,000  Level Salt Lake Center
09:47PM 41.6214 -112.2689 258° West 389 448 38,000  Level Salt Lake Center
09:48PM 41.5944 -112.4375 258° West 389 448 38,000  Level Salt Lake Center
09:49PM 41.5722 -112.5767 258° West 387 445 38,000  Level Salt Lake Center
09:51PM 41.5503 -112.7167 258° West 387 445 38,000  Level Salt Lake Center
09:52PM 41.5264 -112.8578 257° West 390 449 38,000  Level Salt Lake Center
09:53PM 41.5031 -112.9981 258° West 390 449 38,000  Level Salt Lake Center
09:54PM 41.4797 -113.1397 258° West 393 452 38,000  Level Salt Lake Center
09:55PM 41.4561 -113.2819 258° West 396 456 38,000  Level Salt Lake Center
09:56PM 41.4269 -113.4536 257° West 396 456 38,000  Level Salt Lake Center
09:57PM 41.4033 -113.5969 258° West 397 457 38,000  Level Salt Lake Center
09:58PM 41.3789 -113.7392 257° West 397 457 38,000  Level Salt Lake Center
09:59PM 41.3533 -113.8811 257° West 397 457 38,000  Level Salt Lake Center
10:00PM 41.3194 -114.0178 252° West 391 450 38,000  Level Salt Lake Center
10:01PM 41.2858 -114.1567 252° West 393 452 38,000  Level Salt Lake Center
10:02PM 41.2514 -114.2964 252° West 397 457 38,000  Level Salt Lake Center
10:03PM 41.2103 -114.4619 252° West 395 455 38,000  Level Salt Lake Center
10:04PM 41.1750 -114.6008 251° West 397 457 38,000  Level Salt Lake Center
10:05PM 41.1419 -114.7397 253° West 396 456 38,000  Level Salt Lake Center
10:06PM 41.1050 -114.8858 251° West 399 459 38,000  Level Salt Lake Center
10:07PM 41.0711 -115.0186 251° West 399 459 38,000  Level Salt Lake Center
10:08PM 41.0322 -115.1742 252° West 398 458 38,000  Level Salt Lake Center
10:09PM 40.9958 -115.3056 250° West 397 457 38,000  Level Salt Lake Center
10:10PM 40.9564 -115.4583 251° West 393 452 38,000  Level Salt Lake Center
10:11PM 40.9247 -115.5894 252° West 393 452 38,000  Level Salt Lake Center
10:12PM 40.8917 -115.7214 252° West 393 452 38,000  Level Salt Lake Center
10:13PM 40.8506 -115.8733 250° West 394 453 38,000  Level Salt Lake Center
10:14PM 40.8172 -116.0036 251° West 392 451 38,000  Level Salt Lake Center
10:15PM 40.7772 -116.1553 251° West 392 451 38,000  Level Salt Lake Center
10:16PM 40.7428 -116.2864 251° West 394 453 38,000  Level Salt Lake Center
10:17PM 40.7008 -116.4389 250° West 396 456 38,000  Level Salt Lake Center
10:18PM 40.6661 -116.5686 251° West 395 455 38,000  Level Salt Lake Center
10:19PM 40.6317 -116.6986 251° West 395 455 38,000  Level Salt Lake Center
10:20PM 40.5892 -116.8503 250° West 399 459 38,000  Level Salt Lake Center
10:21PM 40.5497 -117.0011 251° West 396 456 38,000  Level Salt Lake Center
10:22PM 40.5156 -117.1314 251° West 399 459 38,000  Level Salt Lake Center
10:23PM 40.4814 -117.2608 251° West 396 456 38,000  Level Salt Lake Center
10:24PM 40.4406 -117.4128 251° West 397 457 38,000  Level Salt Lake Center
10:25PM 40.4067 -117.5417 251° West 393 452 38,000  Level Salt Lake Center
10:26PM 40.3656 -117.6936 250° West 395 455 38,000  Level Salt Lake Center
10:28PM 40.3306 -117.8219 250° West 393 452 38,000  Level Salt Lake Center
10:29PM 40.2897 -117.9742 251° West 395 455 38,000  Level Salt Lake Center
10:30PM 40.2567 -118.1050 252° West 396 456 38,000  Level Salt Lake Center
10:31PM 40.2144 -118.2572 250° West 398 458 38,000  Level Salt Lake Center
10:32PM 40.1781 -118.3875 250° West 399 459 38,000  Level Salt Lake Center
10:33PM 40.1414 -118.5178 250° West 398 458 38,000  Level Salt Lake Center
10:34PM 40.0864 -118.6511 242° Southwest 388 447 38,000  Level Salt Lake Center
10:35PM 40.0236 -118.7647 234° Southwest 387 445 38,000  Level Salt Lake Center
10:36PM 39.9606 -118.8794 234° Southwest 390 449 38,000  Level Salt Lake Center
10:37PM 39.8978 -118.9947 235° Southwest 392 451 38,000  Level Salt Lake Center
10:38PM 39.8258 -119.1356 236° Southwest 390 449 38,000  Level Oakland Center
10:39PM 39.7756 -119.2639 243° Southwest 398 458 38,000 -600 Level Oakland Center
10:40PM 39.7128 -119.4161 242° Southwest 401 461 36,900 -1,080 Descending Oakland Center
10:41PM 39.6625 -119.5442 243° Southwest 402 463 35,900 -960 Descending Oakland Center
10:42PM 39.6061 -119.6781 241° Southwest 425 489 35,000 -1,200 Descending Oakland Center
10:43PM 39.5542 -119.8117 243° Southwest 419 482 33,500 -1,800 Descending Oakland Center
10:44PM 39.4989 -119.9414 241° Southwest 415 478 31,400 -2,040 Descending Oakland Center
10:45PM 39.4492 -120.0650 243° Southwest 394 453 29,400 -2,100 Descending Oakland Center
10:46PM 39.3942 -120.1956 241° Southwest 386 444 27,200 -2,040 Descending Oakland Center
10:47PM 39.3450 -120.3144 242° Southwest 377 434 25,300 -1,860 Descending Oakland Center
10:48PM 39.2967 -120.4283 241° Southwest 363 418 23,400 -1,860 Descending Oakland Center
10:49PM 39.2500 -120.5400 242° Southwest 356 410 21,500 -1,800 Descending Oakland Center
10:50PM 39.2050 -120.6500 242° Southwest 350 403 19,800 -1,800 Descending Oakland Center
10:51PM 39.1603 -120.7547 241° Southwest 340 391 17,900 -1,800 Descending Oakland Center
10:52PM 39.1164 -120.8572 241° Southwest 332 382 16,200 -1,860 Descending Oakland Center
10:53PM 39.0658 -120.9781 242° Southwest 323 372 14,100 -1,860 Descending Oakland Center
10:54PM 39.0250 -121.0750 242° Southwest 313 360 12,500 -1,740 Descending Oakland Center
10:55PM 38.9833 -121.1833 244° Southwest 298 343 10,500 -1,800 Descending Northern Cal TRACON
10:56PM 38.9333 -121.2667 232° Southwest 288 331 8,800 -1,800 Descending Northern Cal TRACON
10:57PM 38.9000 -121.3500 243° Southwest 276 318 6,900 -1,620 Descending Northern Cal TRACON
10:58PM 38.8667 -121.4333 243° Southwest 265 305 5,600 -1,560 Descending Northern Cal TRACON
10:59PM 38.8333 -121.5167 243° Southwest 241 277 3,800 -1,620 Descending Northern Cal TRACON
11:00PM 38.8000 -121.5833 237° Southwest 187 215 2,300 -1,200 Descending Northern Cal TRACON
11:01PM 38.7667 -121.6000 201° Southwest 143 165 1,300 -960 Descending Northern Cal TRACON
11:02PM 38.7333 -121.6000 180° South 126 145 400 -900 Descending Northern Cal TRACON
11:05PM 38.6954 -121.5908 90° East  Level Estimated